sensor_id;sensor_type;location;lat;lon;timestamp;P1;durP1;ratioP1;P2;durP2;ratioP2
47431;SDS011;33183;52.290;6.144;2023-03-14T00:00:17;4.93;;;2.22;;
47431;SDS011;33183;52.290;6.144;2023-03-14T00:02:42;4.50;;;1.88;;
47431;SDS011;33183;52.290;6.144;2023-03-14T00:05:08;4.75;;;1.85;;
47431;SDS011;33183;52.290;6.144;2023-03-14T00:07:34;4.35;;;1.75;;
47431;SDS011;33183;52.290;6.144;2023-03-14T00:10:05;3.72;;;1.77;;
47431;SDS011;33183;52.290;6.144;2023-03-14T00:12:36;6.50;;;2.47;;
47431;SDS011;33183;52.290;6.144;2023-03-14T00:15:01;3.80;;;1.95;;
47431;SDS011;33183;52.290;6.144;2023-03-14T00:17:29;4.85;;;1.88;;
47431;SDS011;33183;52.290;6.144;2023-03-14T00:19:55;5.43;;;2.20;;
47431;SDS011;33183;52.290;6.144;2023-03-14T00:22:21;3.53;;;1.75;;
47431;SDS011;33183;52.290;6.144;2023-03-14T00:24:46;5.18;;;1.67;;
47431;SDS011;33183;52.290;6.144;2023-03-14T00:27:12;3.50;;;2.13;;
47431;SDS011;33183;52.290;6.144;2023-03-14T00:29:37;3.80;;;1.70;;
47431;SDS011;33183;52.290;6.144;2023-03-14T00:32:03;6.32;;;1.88;;
47431;SDS011;33183;52.290;6.144;2023-03-14T00:34:29;4.22;;;1.92;;
47431;SDS011;33183;52.290;6.144;2023-03-14T00:36:55;4.28;;;1.88;;
47431;SDS011;33183;52.290;6.144;2023-03-14T00:39:20;3.92;;;1.50;;
47431;SDS011;33183;52.290;6.144;2023-03-14T00:41:45;5.78;;;2.10;;
47431;SDS011;33183;52.290;6.144;2023-03-14T00:44:10;4.07;;;2.17;;
47431;SDS011;33183;52.290;6.144;2023-03-14T00:46:36;5.22;;;2.05;;
47431;SDS011;33183;52.290;6.144;2023-03-14T00:49:01;3.63;;;1.77;;
47431;SDS011;33183;52.290;6.144;2023-03-14T00:51:27;2.55;;;1.55;;
47431;SDS011;33183;52.290;6.144;2023-03-14T00:53:52;3.63;;;1.65;;
47431;SDS011;33183;52.290;6.144;2023-03-14T00:56:17;5.45;;;2.33;;
47431;SDS011;33183;52.290;6.144;2023-03-14T00:58:42;4.10;;;1.60;;
47431;SDS011;33183;52.290;6.144;2023-03-14T01:01:09;4.32;;;2.55;;
47431;SDS011;33183;52.290;6.144;2023-03-14T01:03:37;5.00;;;1.77;;
47431;SDS011;33183;52.290;6.144;2023-03-14T01:06:06;4.20;;;1.80;;
47431;SDS011;33183;52.290;6.144;2023-03-14T01:08:32;3.45;;;2.05;;
47431;SDS011;33183;52.290;6.144;2023-03-14T01:10:57;3.17;;;1.63;;
47431;SDS011;33183;52.290;6.144;2023-03-14T01:13:23;4.30;;;2.00;;
47431;SDS011;33183;52.290;6.144;2023-03-14T01:15:48;5.32;;;2.38;;
47431;SDS011;33183;52.290;6.144;2023-03-14T01:18:13;4.00;;;1.73;;
47431;SDS011;33183;52.290;6.144;2023-03-14T01:20:38;4.10;;;1.90;;
47431;SDS011;33183;52.290;6.144;2023-03-14T01:23:04;3.90;;;1.73;;
47431;SDS011;33183;52.290;6.144;2023-03-14T01:25:29;4.70;;;1.92;;
47431;SDS011;33183;52.290;6.144;2023-03-14T01:27:55;4.97;;;1.90;;
47431;SDS011;33183;52.290;6.144;2023-03-14T01:30:20;4.30;;;1.70;;
47431;SDS011;33183;52.290;6.144;2023-03-14T01:32:45;4.10;;;1.85;;
47431;SDS011;33183;52.290;6.144;2023-03-14T01:35:10;2.45;;;1.42;;
47431;SDS011;33183;52.290;6.144;2023-03-14T01:37:36;4.25;;;1.77;;
47431;SDS011;33183;52.290;6.144;2023-03-14T01:40:01;2.83;;;1.38;;
47431;SDS011;33183;52.290;6.144;2023-03-14T01:42:28;3.28;;;1.40;;
47431;SDS011;33183;52.290;6.144;2023-03-14T01:47:20;2.80;;;1.70;;
47431;SDS011;33183;52.290;6.144;2023-03-14T01:49:51;3.97;;;1.83;;
47431;SDS011;33183;52.290;6.144;2023-03-14T01:52:44;2.72;;;1.52;;
47431;SDS011;33183;52.290;6.144;2023-03-14T01:55:12;4.47;;;1.48;;
47431;SDS011;33183;52.290;6.144;2023-03-14T01:57:40;3.28;;;1.27;;
47431;SDS011;33183;52.290;6.144;2023-03-14T02:00:21;5.78;;;1.75;;
47431;SDS011;33183;52.290;6.144;2023-03-14T02:05:14;3.25;;;1.75;;
47431;SDS011;33183;52.290;6.144;2023-03-14T02:07:45;4.45;;;2.17;;
47431;SDS011;33183;52.290;6.144;2023-03-14T02:10:12;7.35;;;1.75;;
47431;SDS011;33183;52.290;6.144;2023-03-14T02:12:39;3.13;;;1.40;;
47431;SDS011;33183;52.290;6.144;2023-03-14T02:15:05;4.20;;;1.50;;
47431;SDS011;33183;52.290;6.144;2023-03-14T02:17:30;3.58;;;1.50;;
47431;SDS011;33183;52.290;6.144;2023-03-14T02:20:14;2.13;;;1.00;;
47431;SDS011;33183;52.290;6.144;2023-03-14T02:22:49;4.25;;;1.50;;
47431;SDS011;33183;52.290;6.144;2023-03-14T02:28:05;2.20;;;1.42;;
47431;SDS011;33183;52.290;6.144;2023-03-14T02:30:31;2.75;;;1.45;;
47431;SDS011;33183;52.290;6.144;2023-03-14T02:32:58;2.58;;;1.20;;
47431;SDS011;33183;52.290;6.144;2023-03-14T02:35:27;2.47;;;1.40;;
47431;SDS011;33183;52.290;6.144;2023-03-14T02:38:03;3.28;;;1.45;;
47431;SDS011;33183;52.290;6.144;2023-03-14T02:40:40;2.53;;;1.13;;
47431;SDS011;33183;52.290;6.144;2023-03-14T02:43:05;4.65;;;1.90;;
47431;SDS011;33183;52.290;6.144;2023-03-14T02:45:38;4.47;;;1.42;;
47431;SDS011;33183;52.290;6.144;2023-03-14T02:48:13;2.88;;;1.52;;
47431;SDS011;33183;52.290;6.144;2023-03-14T02:50:41;2.72;;;1.10;;
47431;SDS011;33183;52.290;6.144;2023-03-14T02:53:07;2.53;;;1.52;;
47431;SDS011;33183;52.290;6.144;2023-03-14T02:55:32;2.90;;;1.42;;
47431;SDS011;33183;52.290;6.144;2023-03-14T02:57:58;3.63;;;1.40;;
47431;SDS011;33183;52.290;6.144;2023-03-14T03:00:23;3.45;;;1.75;;
47431;SDS011;33183;52.290;6.144;2023-03-14T03:02:49;3.70;;;1.33;;
47431;SDS011;33183;52.290;6.144;2023-03-14T03:05:14;2.85;;;1.20;;
47431;SDS011;33183;52.290;6.144;2023-03-14T03:07:39;4.13;;;1.65;;
47431;SDS011;33183;52.290;6.144;2023-03-14T03:10:05;2.15;;;1.30;;
47431;SDS011;33183;52.290;6.144;2023-03-14T03:12:30;2.42;;;1.40;;
47431;SDS011;33183;52.290;6.144;2023-03-14T03:14:56;3.17;;;1.50;;
47431;SDS011;33183;52.290;6.144;2023-03-14T03:17:21;3.50;;;1.20;;
47431;SDS011;33183;52.290;6.144;2023-03-14T03:19:46;2.20;;;1.20;;
47431;SDS011;33183;52.290;6.144;2023-03-14T03:22:12;2.75;;;1.23;;
47431;SDS011;33183;52.290;6.144;2023-03-14T03:24:37;1.73;;;1.10;;
47431;SDS011;33183;52.290;6.144;2023-03-14T03:27:02;3.45;;;1.30;;
47431;SDS011;33183;52.290;6.144;2023-03-14T03:29:27;2.47;;;1.45;;
47431;SDS011;33183;52.290;6.144;2023-03-14T03:31:53;4.10;;;1.83;;
47431;SDS011;33183;52.290;6.144;2023-03-14T03:34:18;3.60;;;1.20;;
47431;SDS011;33183;52.290;6.144;2023-03-14T03:36:44;2.80;;;1.20;;
47431;SDS011;33183;52.290;6.144;2023-03-14T03:39:09;2.50;;;1.30;;
47431;SDS011;33183;52.290;6.144;2023-03-14T03:41:34;2.35;;;1.27;;
47431;SDS011;33183;52.290;6.144;2023-03-14T03:43:59;3.75;;;1.50;;
47431;SDS011;33183;52.290;6.144;2023-03-14T03:46:25;2.00;;;1.10;;
47431;SDS011;33183;52.290;6.144;2023-03-14T03:48:56;4.53;;;1.67;;
47431;SDS011;33183;52.290;6.144;2023-03-14T03:51:23;2.00;;;1.02;;
47431;SDS011;33183;52.290;6.144;2023-03-14T03:53:48;2.42;;;1.35;;
47431;SDS011;33183;52.290;6.144;2023-03-14T03:56:13;4.10;;;1.10;;
47431;SDS011;33183;52.290;6.144;2023-03-14T03:58:38;2.50;;;1.05;;
47431;SDS011;33183;52.290;6.144;2023-03-14T04:01:07;2.63;;;1.48;;
47431;SDS011;33183;52.290;6.144;2023-03-14T04:06:02;2.75;;;1.10;;
47431;SDS011;33183;52.290;6.144;2023-03-14T04:08:29;2.05;;;1.13;;
47431;SDS011;33183;52.290;6.144;2023-03-14T04:10:58;1.95;;;1.10;;
47431;SDS011;33183;52.290;6.144;2023-03-14T04:13:25;3.40;;;1.42;;
47431;SDS011;33183;52.290;6.144;2023-03-14T04:15:50;2.45;;;1.20;;
47431;SDS011;33183;52.290;6.144;2023-03-14T04:18:16;2.90;;;1.42;;
47431;SDS011;33183;52.290;6.144;2023-03-14T04:20:41;4.05;;;1.52;;
47431;SDS011;33183;52.290;6.144;2023-03-14T04:23:07;3.80;;;1.48;;
47431;SDS011;33183;52.290;6.144;2023-03-14T04:25:32;4.38;;;1.40;;
47431;SDS011;33183;52.290;6.144;2023-03-14T04:27:57;3.38;;;1.30;;
47431;SDS011;33183;52.290;6.144;2023-03-14T04:30:22;2.67;;;1.17;;
47431;SDS011;33183;52.290;6.144;2023-03-14T04:32:48;3.65;;;1.42;;
47431;SDS011;33183;52.290;6.144;2023-03-14T04:35:13;2.45;;;1.48;;
47431;SDS011;33183;52.290;6.144;2023-03-14T04:37:38;1.23;;;1.10;;
47431;SDS011;33183;52.290;6.144;2023-03-14T04:40:05;1.70;;;1.45;;
47431;SDS011;33183;52.290;6.144;2023-03-14T04:42:31;2.20;;;1.15;;
47431;SDS011;33183;52.290;6.144;2023-03-14T04:44:57;2.40;;;1.33;;
47431;SDS011;33183;52.290;6.144;2023-03-14T04:47:22;2.20;;;1.45;;
47431;SDS011;33183;52.290;6.144;2023-03-14T04:49:47;3.13;;;1.40;;
47431;SDS011;33183;52.290;6.144;2023-03-14T04:52:13;2.67;;;1.15;;
47431;SDS011;33183;52.290;6.144;2023-03-14T04:54:38;3.42;;;1.10;;
47431;SDS011;33183;52.290;6.144;2023-03-14T04:57:03;2.38;;;1.30;;
47431;SDS011;33183;52.290;6.144;2023-03-14T04:59:28;2.35;;;1.02;;
47431;SDS011;33183;52.290;6.144;2023-03-14T05:01:54;3.17;;;1.13;;
47431;SDS011;33183;52.290;6.144;2023-03-14T05:04:19;3.78;;;1.30;;
47431;SDS011;33183;52.290;6.144;2023-03-14T05:06:44;2.78;;;1.23;;
47431;SDS011;33183;52.290;6.144;2023-03-14T05:09:09;3.15;;;1.25;;
47431;SDS011;33183;52.290;6.144;2023-03-14T05:11:35;2.50;;;1.23;;
47431;SDS011;33183;52.290;6.144;2023-03-14T05:14:00;4.00;;;1.20;;
47431;SDS011;33183;52.290;6.144;2023-03-14T05:16:25;3.33;;;1.15;;
47431;SDS011;33183;52.290;6.144;2023-03-14T05:18:51;2.67;;;1.20;;
47431;SDS011;33183;52.290;6.144;2023-03-14T05:21:16;3.15;;;1.23;;
47431;SDS011;33183;52.290;6.144;2023-03-14T05:23:41;1.63;;;1.08;;
47431;SDS011;33183;52.290;6.144;2023-03-14T05:26:06;4.25;;;1.00;;
47431;SDS011;33183;52.290;6.144;2023-03-14T05:28:32;3.45;;;1.17;;
47431;SDS011;33183;52.290;6.144;2023-03-14T05:30:57;2.47;;;1.20;;
47431;SDS011;33183;52.290;6.144;2023-03-14T05:33:22;4.00;;;1.05;;
47431;SDS011;33183;52.290;6.144;2023-03-14T05:35:47;2.33;;;1.20;;
47431;SDS011;33183;52.290;6.144;2023-03-14T05:38:13;5.63;;;1.20;;
47431;SDS011;33183;52.290;6.144;2023-03-14T05:40:38;4.70;;;1.27;;
47431;SDS011;33183;52.290;6.144;2023-03-14T05:43:03;5.35;;;1.70;;
47431;SDS011;33183;52.290;6.144;2023-03-14T05:45:29;3.90;;;1.25;;
47431;SDS011;33183;52.290;6.144;2023-03-14T05:47:54;3.15;;;1.48;;
47431;SDS011;33183;52.290;6.144;2023-03-14T05:50:19;2.88;;;1.17;;
47431;SDS011;33183;52.290;6.144;2023-03-14T05:52:45;2.47;;;1.02;;
47431;SDS011;33183;52.290;6.144;2023-03-14T05:55:10;3.65;;;1.48;;
47431;SDS011;33183;52.290;6.144;2023-03-14T05:57:35;3.35;;;1.33;;
47431;SDS011;33183;52.290;6.144;2023-03-14T06:00:00;5.90;;;1.50;;
47431;SDS011;33183;52.290;6.144;2023-03-14T06:02:26;4.68;;;1.55;;
47431;SDS011;33183;52.290;6.144;2023-03-14T06:04:52;4.65;;;1.60;;
47431;SDS011;33183;52.290;6.144;2023-03-14T06:07:17;3.50;;;1.20;;
47431;SDS011;33183;52.290;6.144;2023-03-14T06:09:42;3.78;;;1.52;;
47431;SDS011;33183;52.290;6.144;2023-03-14T06:12:08;2.63;;;1.33;;
47431;SDS011;33183;52.290;6.144;2023-03-14T06:14:33;2.22;;;1.10;;
47431;SDS011;33183;52.290;6.144;2023-03-14T06:16:58;3.72;;;1.20;;
47431;SDS011;33183;52.290;6.144;2023-03-14T06:19:24;2.75;;;1.10;;
47431;SDS011;33183;52.290;6.144;2023-03-14T06:21:50;2.97;;;1.20;;
47431;SDS011;33183;52.290;6.144;2023-03-14T06:24:15;2.08;;;1.10;;
47431;SDS011;33183;52.290;6.144;2023-03-14T06:26:40;3.60;;;1.55;;
47431;SDS011;33183;52.290;6.144;2023-03-14T06:29:06;4.28;;;1.48;;
47431;SDS011;33183;52.290;6.144;2023-03-14T06:31:31;5.13;;;1.55;;
47431;SDS011;33183;52.290;6.144;2023-03-14T06:33:56;3.42;;;0.90;;
47431;SDS011;33183;52.290;6.144;2023-03-14T06:36:22;2.42;;;1.20;;
47431;SDS011;33183;52.290;6.144;2023-03-14T06:38:47;3.70;;;1.20;;
47431;SDS011;33183;52.290;6.144;2023-03-14T06:41:13;2.90;;;1.08;;
47431;SDS011;33183;52.290;6.144;2023-03-14T06:43:38;2.70;;;1.17;;
47431;SDS011;33183;52.290;6.144;2023-03-14T06:46:03;2.92;;;1.08;;
47431;SDS011;33183;52.290;6.144;2023-03-14T06:48:29;2.88;;;1.35;;
47431;SDS011;33183;52.290;6.144;2023-03-14T06:50:54;1.83;;;0.90;;
47431;SDS011;33183;52.290;6.144;2023-03-14T06:53:19;3.70;;;1.10;;
47431;SDS011;33183;52.290;6.144;2023-03-14T06:55:45;2.72;;;1.15;;
47431;SDS011;33183;52.290;6.144;2023-03-14T06:58:10;4.95;;;1.17;;
47431;SDS011;33183;52.290;6.144;2023-03-14T07:00:36;3.72;;;1.73;;
47431;SDS011;33183;52.290;6.144;2023-03-14T07:03:01;2.22;;;1.20;;
47431;SDS011;33183;52.290;6.144;2023-03-14T07:05:27;2.42;;;0.93;;
47431;SDS011;33183;52.290;6.144;2023-03-14T07:07:52;3.47;;;1.10;;
47431;SDS011;33183;52.290;6.144;2023-03-14T07:10:18;2.13;;;1.38;;
47431;SDS011;33183;52.290;6.144;2023-03-14T07:12:43;3.05;;;1.50;;
47431;SDS011;33183;52.290;6.144;2023-03-14T07:15:09;3.30;;;0.93;;
47431;SDS011;33183;52.290;6.144;2023-03-14T07:17:34;2.88;;;0.88;;
47431;SDS011;33183;52.290;6.144;2023-03-14T07:19:59;3.08;;;1.02;;
47431;SDS011;33183;52.290;6.144;2023-03-14T07:22:25;2.47;;;0.90;;
47431;SDS011;33183;52.290;6.144;2023-03-14T07:24:51;2.20;;;1.17;;
47431;SDS011;33183;52.290;6.144;2023-03-14T07:27:16;3.60;;;1.25;;
47431;SDS011;33183;52.290;6.144;2023-03-14T07:29:41;2.33;;;1.15;;
47431;SDS011;33183;52.290;6.144;2023-03-14T07:32:07;3.88;;;1.00;;
47431;SDS011;33183;52.290;6.144;2023-03-14T07:34:32;3.58;;;1.00;;
47431;SDS011;33183;52.290;6.144;2023-03-14T07:36:58;2.05;;;0.90;;
47431;SDS011;33183;52.290;6.144;2023-03-14T07:39:23;2.50;;;0.90;;
47431;SDS011;33183;52.290;6.144;2023-03-14T07:41:49;2.40;;;1.02;;
47431;SDS011;33183;52.290;6.144;2023-03-14T07:44:14;1.98;;;0.98;;
47431;SDS011;33183;52.290;6.144;2023-03-14T07:46:39;2.45;;;1.05;;
47431;SDS011;33183;52.290;6.144;2023-03-14T07:49:05;1.75;;;0.80;;
47431;SDS011;33183;52.290;6.144;2023-03-14T07:51:30;2.13;;;0.75;;
47431;SDS011;33183;52.290;6.144;2023-03-14T07:53:55;3.20;;;1.00;;
47431;SDS011;33183;52.290;6.144;2023-03-14T07:56:20;1.77;;;0.70;;
47431;SDS011;33183;52.290;6.144;2023-03-14T07:58:46;1.73;;;0.90;;
47431;SDS011;33183;52.290;6.144;2023-03-14T08:01:11;1.50;;;0.82;;
47431;SDS011;33183;52.290;6.144;2023-03-14T08:03:36;1.85;;;0.85;;
47431;SDS011;33183;52.290;6.144;2023-03-14T08:06:02;4.35;;;1.20;;
47431;SDS011;33183;52.290;6.144;2023-03-14T08:08:27;2.50;;;1.00;;
47431;SDS011;33183;52.290;6.144;2023-03-14T08:10:52;1.63;;;0.60;;
47431;SDS011;33183;52.290;6.144;2023-03-14T08:13:17;1.75;;;0.80;;
47431;SDS011;33183;52.290;6.144;2023-03-14T08:15:47;2.35;;;0.80;;
47431;SDS011;33183;52.290;6.144;2023-03-14T08:18:13;1.88;;;0.93;;
47431;SDS011;33183;52.290;6.144;2023-03-14T08:20:38;1.65;;;0.70;;
47431;SDS011;33183;52.290;6.144;2023-03-14T08:23:03;2.25;;;1.00;;
47431;SDS011;33183;52.290;6.144;2023-03-14T08:25:29;1.33;;;0.70;;
47431;SDS011;33183;52.290;6.144;2023-03-14T08:27:54;1.30;;;0.80;;
47431;SDS011;33183;52.290;6.144;2023-03-14T08:30:20;1.77;;;0.70;;
47431;SDS011;33183;52.290;6.144;2023-03-14T08:32:46;1.95;;;0.77;;
47431;SDS011;33183;52.290;6.144;2023-03-14T08:35:12;1.35;;;1.10;;
47431;SDS011;33183;52.290;6.144;2023-03-14T08:37:37;2.08;;;0.60;;
47431;SDS011;33183;52.290;6.144;2023-03-14T08:40:03;1.58;;;0.80;;
47431;SDS011;33183;52.290;6.144;2023-03-14T08:42:34;1.20;;;0.73;;
47431;SDS011;33183;52.290;6.144;2023-03-14T08:45:03;1.73;;;0.80;;
47431;SDS011;33183;52.290;6.144;2023-03-14T08:47:29;2.42;;;0.75;;
47431;SDS011;33183;52.290;6.144;2023-03-14T08:49:54;1.80;;;0.85;;
47431;SDS011;33183;52.290;6.144;2023-03-14T08:52:20;1.27;;;0.73;;
47431;SDS011;33183;52.290;6.144;2023-03-14T08:54:45;3.60;;;1.13;;
47431;SDS011;33183;52.290;6.144;2023-03-14T08:57:10;1.23;;;0.70;;
47431;SDS011;33183;52.290;6.144;2023-03-14T08:59:36;2.35;;;1.00;;
47431;SDS011;33183;52.290;6.144;2023-03-14T09:02:01;2.78;;;0.80;;
47431;SDS011;33183;52.290;6.144;2023-03-14T09:04:28;1.48;;;0.77;;
47431;SDS011;33183;52.290;6.144;2023-03-14T09:06:54;2.35;;;0.90;;
47431;SDS011;33183;52.290;6.144;2023-03-14T09:09:20;2.15;;;0.88;;
47431;SDS011;33183;52.290;6.144;2023-03-14T09:11:45;14.43;;;2.17;;
47431;SDS011;33183;52.290;6.144;2023-03-14T09:14:10;1.42;;;0.60;;
47431;SDS011;33183;52.290;6.144;2023-03-14T09:16:35;1.75;;;0.60;;
47431;SDS011;33183;52.290;6.144;2023-03-14T09:19:01;1.42;;;0.60;;
47431;SDS011;33183;52.290;6.144;2023-03-14T09:21:26;1.38;;;0.93;;
47431;SDS011;33183;52.290;6.144;2023-03-14T09:23:52;3.30;;;0.80;;
47431;SDS011;33183;52.290;6.144;2023-03-14T09:26:17;1.33;;;0.70;;
47431;SDS011;33183;52.290;6.144;2023-03-14T09:28:43;1.98;;;0.77;;
47431;SDS011;33183;52.290;6.144;2023-03-14T09:31:09;1.98;;;0.70;;
47431;SDS011;33183;52.290;6.144;2023-03-14T09:33:35;0.75;;;0.70;;
47431;SDS011;33183;52.290;6.144;2023-03-14T09:36:01;1.75;;;0.60;;
47431;SDS011;33183;52.290;6.144;2023-03-14T09:38:27;2.17;;;0.60;;
47431;SDS011;33183;52.290;6.144;2023-03-14T09:40:53;1.92;;;0.80;;
47431;SDS011;33183;52.290;6.144;2023-03-14T09:43:19;1.48;;;0.60;;
47431;SDS011;33183;52.290;6.144;2023-03-14T09:45:46;1.60;;;0.70;;
47431;SDS011;33183;52.290;6.144;2023-03-14T09:48:17;1.73;;;0.60;;
47431;SDS011;33183;52.290;6.144;2023-03-14T09:50:46;2.13;;;0.82;;
47431;SDS011;33183;52.290;6.144;2023-03-14T09:55:41;4.05;;;0.70;;
47431;SDS011;33183;52.290;6.144;2023-03-14T09:58:11;1.42;;;1.05;;
47431;SDS011;33183;52.290;6.144;2023-03-14T10:00:38;2.15;;;0.60;;
47431;SDS011;33183;52.290;6.144;2023-03-14T10:05:38;1.63;;;0.60;;
47431;SDS011;33183;52.290;6.144;2023-03-14T10:08:04;1.60;;;0.60;;
47431;SDS011;33183;52.290;6.144;2023-03-14T10:10:30;1.60;;;0.60;;
47431;SDS011;33183;52.290;6.144;2023-03-14T10:12:56;1.20;;;0.80;;
47431;SDS011;33183;52.290;6.144;2023-03-14T10:15:46;2.38;;;0.80;;
47431;SDS011;33183;52.290;6.144;2023-03-14T10:18:25;1.55;;;0.60;;
47431;SDS011;33183;52.290;6.144;2023-03-14T10:21:01;2.40;;;0.65;;
47431;SDS011;33183;52.290;6.144;2023-03-14T10:23:32;2.25;;;0.88;;
47431;SDS011;33183;52.290;6.144;2023-03-14T10:26:00;1.52;;;0.80;;
47431;SDS011;33183;52.290;6.144;2023-03-14T10:28:30;1.92;;;1.15;;
47431;SDS011;33183;52.290;6.144;2023-03-14T10:30:58;3.05;;;0.73;;
47431;SDS011;33183;52.290;6.144;2023-03-14T10:33:25;1.95;;;0.80;;
47431;SDS011;33183;52.290;6.144;2023-03-14T10:35:53;2.17;;;0.70;;
47431;SDS011;33183;52.290;6.144;2023-03-14T10:38:20;1.60;;;0.90;;
47431;SDS011;33183;52.290;6.144;2023-03-14T10:40:49;2.97;;;0.88;;
47431;SDS011;33183;52.290;6.144;2023-03-14T10:43:18;3.30;;;0.90;;
47431;SDS011;33183;52.290;6.144;2023-03-14T10:45:51;7.68;;;1.05;;
47431;SDS011;33183;52.290;6.144;2023-03-14T10:48:35;2.65;;;0.80;;
47431;SDS011;33183;52.290;6.144;2023-03-14T10:53:29;2.00;;;0.80;;
47431;SDS011;33183;52.290;6.144;2023-03-14T10:55:58;2.78;;;0.80;;
47431;SDS011;33183;52.290;6.144;2023-03-14T10:58:28;3.13;;;0.98;;
47431;SDS011;33183;52.290;6.144;2023-03-14T11:04:14;3.22;;;0.90;;
47431;SDS011;33183;52.290;6.144;2023-03-14T11:06:50;2.65;;;1.10;;
47431;SDS011;33183;52.290;6.144;2023-03-14T11:09:29;3.55;;;0.93;;
47431;SDS011;33183;52.290;6.144;2023-03-14T11:12:01;3.20;;;1.17;;
47431;SDS011;33183;52.290;6.144;2023-03-14T11:14:46;1.52;;;0.80;;
47431;SDS011;33183;52.290;6.144;2023-03-14T11:17:24;3.50;;;1.00;;
47431;SDS011;33183;52.290;6.144;2023-03-14T11:20:04;2.47;;;1.10;;
47431;SDS011;33183;52.290;6.144;2023-03-14T11:22:43;4.40;;;1.05;;
47431;SDS011;33183;52.290;6.144;2023-03-14T11:25:15;1.60;;;1.13;;
47431;SDS011;33183;52.290;6.144;2023-03-14T11:33:08;3.17;;;0.98;;
47431;SDS011;33183;52.290;6.144;2023-03-14T11:38:37;3.42;;;1.10;;
47431;SDS011;33183;52.290;6.144;2023-03-14T11:41:03;4.85;;;1.88;;
47431;SDS011;33183;52.290;6.144;2023-03-14T11:43:30;2.67;;;1.10;;
47431;SDS011;33183;52.290;6.144;2023-03-14T11:46:34;3.92;;;1.20;;
47431;SDS011;33183;52.290;6.144;2023-03-14T11:49:01;3.33;;;1.50;;
47431;SDS011;33183;52.290;6.144;2023-03-14T11:56:41;4.22;;;1.40;;
47431;SDS011;33183;52.290;6.144;2023-03-14T11:59:12;4.18;;;1.38;;
47431;SDS011;33183;52.290;6.144;2023-03-14T12:02:01;2.30;;;0.93;;
47431;SDS011;33183;52.290;6.144;2023-03-14T12:07:20;2.35;;;1.00;;
47431;SDS011;33183;52.290;6.144;2023-03-14T12:09:50;3.20;;;1.08;;
47431;SDS011;33183;52.290;6.144;2023-03-14T12:12:20;3.13;;;0.85;;
47431;SDS011;33183;52.290;6.144;2023-03-14T12:15:00;3.60;;;1.00;;
47431;SDS011;33183;52.290;6.144;2023-03-14T12:17:34;3.30;;;1.20;;
47431;SDS011;33183;52.290;6.144;2023-03-14T12:22:53;2.50;;;1.00;;
47431;SDS011;33183;52.290;6.144;2023-03-14T12:25:23;3.10;;;0.90;;
47431;SDS011;33183;52.290;6.144;2023-03-14T12:35:41;3.97;;;1.30;;
47431;SDS011;33183;52.290;6.144;2023-03-14T12:43:29;3.92;;;1.00;;
47431;SDS011;33183;52.290;6.144;2023-03-14T12:48:40;2.90;;;1.20;;
47431;SDS011;33183;52.290;6.144;2023-03-14T12:51:13;4.22;;;1.50;;
47431;SDS011;33183;52.290;6.144;2023-03-14T13:04:48;2.92;;;1.10;;
47431;SDS011;33183;52.290;6.144;2023-03-14T13:10:26;3.63;;;1.20;;
47431;SDS011;33183;52.290;6.144;2023-03-14T13:15:40;3.35;;;1.23;;
47431;SDS011;33183;52.290;6.144;2023-03-14T13:21:24;3.20;;;1.23;;
47431;SDS011;33183;52.290;6.144;2023-03-14T13:26:25;4.63;;;1.40;;
47431;SDS011;33183;52.290;6.144;2023-03-14T13:28:57;2.83;;;1.00;;
47431;SDS011;33183;52.290;6.144;2023-03-14T13:31:23;3.30;;;1.20;;
47431;SDS011;33183;52.290;6.144;2023-03-14T13:33:56;3.05;;;1.15;;
47431;SDS011;33183;52.290;6.144;2023-03-14T13:36:23;2.40;;;1.05;;
47431;SDS011;33183;52.290;6.144;2023-03-14T13:38:54;2.55;;;1.00;;
47431;SDS011;33183;52.290;6.144;2023-03-14T13:41:22;3.17;;;1.13;;
47431;SDS011;33183;52.290;6.144;2023-03-14T13:43:48;4.38;;;1.20;;
47431;SDS011;33183;52.290;6.144;2023-03-14T13:46:14;3.67;;;1.00;;
47431;SDS011;33183;52.290;6.144;2023-03-14T13:48:46;3.05;;;0.88;;
47431;SDS011;33183;52.290;6.144;2023-03-14T13:51:13;2.10;;;0.90;;
47431;SDS011;33183;52.290;6.144;2023-03-14T13:56:16;2.78;;;1.13;;
47431;SDS011;33183;52.290;6.144;2023-03-14T13:58:42;2.85;;;1.00;;
47431;SDS011;33183;52.290;6.144;2023-03-14T14:03:51;4.93;;;1.80;;
47431;SDS011;33183;52.290;6.144;2023-03-14T14:06:27;2.47;;;1.00;;
47431;SDS011;33183;52.290;6.144;2023-03-14T14:08:56;4.00;;;1.15;;
47431;SDS011;33183;52.290;6.144;2023-03-14T14:11:34;2.65;;;0.82;;
47431;SDS011;33183;52.290;6.144;2023-03-14T14:14:16;3.72;;;1.00;;
47431;SDS011;33183;52.290;6.144;2023-03-14T14:16:45;1.98;;;1.05;;
47431;SDS011;33183;52.290;6.144;2023-03-14T14:19:12;3.53;;;1.15;;
47431;SDS011;33183;52.290;6.144;2023-03-14T14:21:38;3.10;;;0.88;;
47431;SDS011;33183;52.290;6.144;2023-03-14T14:24:03;2.92;;;1.08;;
47431;SDS011;33183;52.290;6.144;2023-03-14T14:26:29;2.40;;;0.90;;
47431;SDS011;33183;52.290;6.144;2023-03-14T14:29:00;3.80;;;1.10;;
47431;SDS011;33183;52.290;6.144;2023-03-14T14:31:28;4.20;;;1.13;;
47431;SDS011;33183;52.290;6.144;2023-03-14T14:33:57;4.13;;;1.10;;
47431;SDS011;33183;52.290;6.144;2023-03-14T14:36:31;2.78;;;1.25;;
47431;SDS011;33183;52.290;6.144;2023-03-14T14:39:16;2.50;;;1.17;;
47431;SDS011;33183;52.290;6.144;2023-03-14T14:41:43;3.92;;;0.98;;
47431;SDS011;33183;52.290;6.144;2023-03-14T14:44:12;2.47;;;1.15;;
47431;SDS011;33183;52.290;6.144;2023-03-14T14:46:38;2.42;;;0.80;;
47431;SDS011;33183;52.290;6.144;2023-03-14T14:49:11;4.57;;;1.08;;
47431;SDS011;33183;52.290;6.144;2023-03-14T14:51:40;2.70;;;0.95;;
47431;SDS011;33183;52.290;6.144;2023-03-14T14:54:15;2.63;;;1.02;;
47431;SDS011;33183;52.290;6.144;2023-03-14T14:57:25;6.55;;;1.20;;
47431;SDS011;33183;52.290;6.144;2023-03-14T14:59:31;4.32;;;1.10;;
47431;SDS011;33183;52.290;6.144;2023-03-14T15:01:59;2.92;;;1.10;;
47431;SDS011;33183;52.290;6.144;2023-03-14T15:04:26;3.30;;;1.40;;
47431;SDS011;33183;52.290;6.144;2023-03-14T15:06:51;2.85;;;1.02;;
47431;SDS011;33183;52.290;6.144;2023-03-14T15:09:17;2.38;;;0.77;;
47431;SDS011;33183;52.290;6.144;2023-03-14T15:11:43;5.47;;;1.13;;
47431;SDS011;33183;52.290;6.144;2023-03-14T15:14:09;3.72;;;1.15;;
47431;SDS011;33183;52.290;6.144;2023-03-14T15:16:34;3.45;;;0.95;;
47431;SDS011;33183;52.290;6.144;2023-03-14T15:19:00;6.57;;;1.95;;
47431;SDS011;33183;52.290;6.144;2023-03-14T15:21:30;3.55;;;1.10;;
47431;SDS011;33183;52.290;6.144;2023-03-14T15:23:56;2.67;;;0.90;;
47431;SDS011;33183;52.290;6.144;2023-03-14T15:26:22;3.78;;;1.65;;
47431;SDS011;33183;52.290;6.144;2023-03-14T15:28:49;3.25;;;1.02;;
47431;SDS011;33183;52.290;6.144;2023-03-14T15:31:15;3.38;;;1.10;;
47431;SDS011;33183;52.290;6.144;2023-03-14T15:33:42;5.07;;;1.13;;
47431;SDS011;33183;52.290;6.144;2023-03-14T15:38:51;3.35;;;0.90;;
47431;SDS011;33183;52.290;6.144;2023-03-14T15:41:17;3.63;;;1.20;;
47431;SDS011;33183;52.290;6.144;2023-03-14T15:43:42;3.05;;;0.90;;
47431;SDS011;33183;52.290;6.144;2023-03-14T15:46:09;2.00;;;0.68;;
47431;SDS011;33183;52.290;6.144;2023-03-14T15:48:35;3.60;;;0.85;;
47431;SDS011;33183;52.290;6.144;2023-03-14T15:51:00;2.15;;;0.80;;
47431;SDS011;33183;52.290;6.144;2023-03-14T15:53:25;1.55;;;0.80;;
47431;SDS011;33183;52.290;6.144;2023-03-14T15:55:50;3.47;;;0.95;;
47431;SDS011;33183;52.290;6.144;2023-03-14T15:58:17;4.45;;;1.10;;
47431;SDS011;33183;52.290;6.144;2023-03-14T16:00:43;2.85;;;0.80;;
47431;SDS011;33183;52.290;6.144;2023-03-14T16:03:08;2.05;;;0.80;;
47431;SDS011;33183;52.290;6.144;2023-03-14T16:05:35;3.75;;;0.95;;
47431;SDS011;33183;52.290;6.144;2023-03-14T16:08:00;3.03;;;1.05;;
47431;SDS011;33183;52.290;6.144;2023-03-14T16:10:26;1.85;;;0.90;;
47431;SDS011;33183;52.290;6.144;2023-03-14T16:12:51;2.42;;;0.90;;
47431;SDS011;33183;52.290;6.144;2023-03-14T16:15:17;2.80;;;0.68;;